Rusty Zeller — WDF3821 — position and weather

sailwx.info

Track history (hours):
 
Tides and Currents Weather Stations Pressure Air Temp Water Temp Dewpoint Dewpoint Depression Visibility Wind Speed Wind Dir Waves Ship Positions

Rusty Zeller

Owner: Florida Marine Transporters, Inc., Mandeville, LA. More information available from US FCC via Universal Licensing System and Coast Guard Vessel Documentation Center.

Last reported at 2017-Nov-15 11:12 UTC. Time now 2017-Nov-19 18:12 UTC.
Position N 32°40' W 091°07'.

Length 43 m; draft 3.2 m.

Type: Other ship. MMSI: 367444420.

Date/timePositionNaut miles runAvg speedWind from/ knotsBaromVisibWave heightAir tempDewpointWater temp
2017-Nov-15 11:12N 32°40' W 091°07'1 4.8
2017-Nov-15 11:00N 32°40' W 091°08'3 4.3
2017-Nov-15 10:12N 32°36' W 091°09'1 5.0
2017-Nov-15 10:00N 32°36' W 091°08'4 4.6
2017-Nov-15 09:10N 32°32' W 091°06'1 5.2
2017-Nov-15 09:00N 32°31' W 091°06'3 5.3
2017-Nov-15 08:30N 32°29' W 091°07'3 5.3
2017-Nov-15 08:00N 32°27' W 091°05'3 5.3
2017-Nov-15 07:30N 32°26' W 091°02'2 4.8
2017-Nov-15 07:00N 32°24' W 090°59'2 4.9
2017-Nov-15 06:30N 32°22' W 091°00'2 3.0
2017-Nov-15 06:00N 32°21' W 090°59'3 5.6
2017-Nov-15 05:30N 32°21' W 090°56'2 4.2
2017-Nov-15 05:00N 32°19' W 090°54'3 5.3
2017-Nov-15 04:30N 32°17' W 090°56'3 5.4
2017-Nov-15 04:00N 32°15' W 090°58'2 3.8
2017-Nov-15 03:30N 32°14' W 090°59'2 4.3
2017-Nov-15 03:00N 32°11' W 090°60'2 4.9
2017-Nov-15 02:30N 32°09' W 091°00'2 4.5
2017-Nov-15 02:00N 32°07' W 091°02'3 4.9
2017-Nov-15 01:22N 32°08' W 091°05'1 4.1
2017-Nov-15 01:00N 32°07' W 091°07'6 4.5
2017-Nov-14 23:44N 32°02' W 091°04'  
2017-Nov-07 07:43N 31°41' W 091°24'4 8.1
2017-Nov-07 07:17N 31°44' W 091°23'3 9.0
2017-Nov-07 06:54N 31°47' W 091°21'14 7.1
2017-Nov-07 04:59N 31°58' W 091°11'6 7.8
2017-Nov-07 04:14N 32°00' W 091°05'3 9.2
2017-Nov-07 03:56N 32°03' W 091°04'4 8.2
2017-Nov-07 03:28N 32°06' W 091°06'2 4.6
2017-Nov-07 02:59N 32°08' W 091°05'3 7.0
2017-Nov-07 02:30N 32°08' W 091°01'4 8.2
2017-Nov-07 02:00N 32°12' W 090°59'4 8.8
2017-Nov-07 01:30N 32°16' W 090°58'4 8.7
2017-Nov-07 01:00N 32°19' W 090°54'3 6.1
2017-Nov-07 00:30N 32°21' W 090°57'3 6.2
2017-Nov-07 00:00N 32°23' W 091°00'3 6.6
2017-Nov-06 23:30N 32°26' W 091°02'4 8.1
2017-Nov-06 23:00N 32°28' W 091°06'4 6.3
2017-Nov-06 22:20N 32°32' W 091°06'2 6.3
2017-Nov-06 22:00N 32°34' W 091°06'4 7.8
2017-Nov-06 21:30N 32°37' W 091°09'  
Track history (hours):
 
Tides and Currents Weather Stations Pressure Air Temp Water Temp Dewpoint Dewpoint Depression Visibility Wind Speed Wind Dir Waves Ship Positions

Rusty Zeller

Owner: Florida Marine Transporters, Inc., Mandeville, LA. More information available from US FCC via Universal Licensing System and Coast Guard Vessel Documentation Center.

Last reported at 2017-Nov-15 11:12 UTC. Time now 2017-Nov-19 18:12 UTC.
Position N 32°40' W 091°07'.

Length 43 m; draft 3.2 m.

Type: Other ship. MMSI: 367444420.

Date/timePositionNaut miles runAvg speedWind from/ knotsBaromVisibWave heightAir tempDewpointWater temp
2017-Nov-15 11:12N 32°40' W 091°07'1 4.8
2017-Nov-15 11:00N 32°40' W 091°08'3 4.3
2017-Nov-15 10:12N 32°36' W 091°09'1 5.0
2017-Nov-15 10:00N 32°36' W 091°08'4 4.6
2017-Nov-15 09:10N 32°32' W 091°06'1 5.2
2017-Nov-15 09:00N 32°31' W 091°06'3 5.3
2017-Nov-15 08:30N 32°29' W 091°07'3 5.3
2017-Nov-15 08:00N 32°27' W 091°05'3 5.3
2017-Nov-15 07:30N 32°26' W 091°02'2 4.8
2017-Nov-15 07:00N 32°24' W 090°59'2 4.9
2017-Nov-15 06:30N 32°22' W 091°00'2 3.0
2017-Nov-15 06:00N 32°21' W 090°59'3 5.6
2017-Nov-15 05:30N 32°21' W 090°56'2 4.2
2017-Nov-15 05:00N 32°19' W 090°54'3 5.3
2017-Nov-15 04:30N 32°17' W 090°56'3 5.4
2017-Nov-15 04:00N 32°15' W 090°58'2 3.8
2017-Nov-15 03:30N 32°14' W 090°59'2 4.3
2017-Nov-15 03:00N 32°11' W 090°60'2 4.9
2017-Nov-15 02:30N 32°09' W 091°00'2 4.5
2017-Nov-15 02:00N 32°07' W 091°02'3 4.9
2017-Nov-15 01:22N 32°08' W 091°05'1 4.1
2017-Nov-15 01:00N 32°07' W 091°07'6 4.5
2017-Nov-14 23:44N 32°02' W 091°04'  
2017-Nov-07 07:43N 31°41' W 091°24'4 8.1
2017-Nov-07 07:17N 31°44' W 091°23'3 9.0
2017-Nov-07 06:54N 31°47' W 091°21'14 7.1
2017-Nov-07 04:59N 31°58' W 091°11'6 7.8
2017-Nov-07 04:14N 32°00' W 091°05'3 9.2
2017-Nov-07 03:56N 32°03' W 091°04'4 8.2
2017-Nov-07 03:28N 32°06' W 091°06'2 4.6
2017-Nov-07 02:59N 32°08' W 091°05'3 7.0
2017-Nov-07 02:30N 32°08' W 091°01'4 8.2
2017-Nov-07 02:00N 32°12' W 090°59'4 8.8
2017-Nov-07 01:30N 32°16' W 090°58'4 8.7
2017-Nov-07 01:00N 32°19' W 090°54'3 6.1
2017-Nov-07 00:30N 32°21' W 090°57'3 6.2
2017-Nov-07 00:00N 32°23' W 091°00'3 6.6
2017-Nov-06 23:30N 32°26' W 091°02'4 8.1
2017-Nov-06 23:00N 32°28' W 091°06'4 6.3
2017-Nov-06 22:20N 32°32' W 091°06'2 6.3
2017-Nov-06 22:00N 32°34' W 091°06'4 7.8
2017-Nov-06 21:30N 32°37' W 091°09'  

Dump ship's entire track history